Time;durP1;ratioP1;P1;durP2;ratioP2;P2;SDS_P1;SDS_P2;PMS_P1;PMS_P2;Temp;Humidity;BMP_temperature;BMP_pressure;BME280_temperature;BME280_humidity;BME280_pressure;Samples;Min_cycle;Max_cycle;Signal;HPM_P1;HPM_P2
2022/04/03 00:02:04;;;;;;;6.73;5.73;;;4.80;96.60;;;;;;6254118;28;20855;-68
2022/04/03 00:05:09;;;;;;;8.40;5.73;;;4.80;96.70;;;;;;6255550;28;20473;-68
2022/04/03 00:08:13;;;;;;;6.80;6.20;;;4.80;96.60;;;;;;6255180;28;20446;-69
2022/04/03 00:11:17;;;;;;;6.53;5.93;;;4.70;96.70;;;;;;6253913;28;20802;-68
2022/04/03 00:14:20;;;;;;;5.50;5.10;;;4.70;96.70;;;;;;6253013;28;20798;-68
2022/04/03 00:17:25;;;;;;;5.83;5.33;;;4.70;96.70;;;;;;6255398;28;20457;-68
2022/04/03 00:20:28;;;;;;;6.27;5.70;;;4.60;96.50;;;;;;6254585;28;20960;-69
2022/04/03 00:23:31;;;;;;;5.93;5.37;;;4.60;96.50;;;;;;6252977;28;20484;-69
2022/04/03 00:26:34;;;;;;;6.07;5.57;;;4.60;96.50;;;;;;6253543;28;21005;-69
2022/04/03 00:29:37;;;;;;;5.73;5.23;;;4.60;96.50;;;;;;6253247;28;20481;-68
2022/04/03 00:32:42;;;;;;;6.97;6.37;;;4.70;96.60;;;;;;6253010;28;20489;-67
2022/04/03 00:35:45;;;;;;;7.70;6.80;;;4.80;96.70;;;;;;6252731;28;20482;-68
2022/04/03 00:38:48;;;;;;;5.43;4.93;;;4.80;96.60;;;;;;6252436;28;20791;-68
2022/04/03 00:41:53;;;;;;;5.53;5.13;;;4.90;96.40;;;;;;6252568;28;20494;-68
2022/04/03 00:44:56;;;;;;;6.83;6.07;;;4.90;96.30;;;;;;6252044;28;21024;-68
2022/04/03 00:48:01;;;;;;;5.87;5.20;;;5.00;96.30;;;;;;6252459;28;20483;-69
2022/04/03 00:51:04;;;;;;;6.20;5.70;;;5.00;96.00;;;;;;6253174;28;20514;-69
2022/04/03 00:54:07;;;;;;;6.17;5.20;;;5.00;95.60;;;;;;6252065;28;20479;-69
2022/04/03 00:57:11;;;;;;;7.43;5.90;;;5.10;95.60;;;;;;6252068;28;20477;-67
2022/04/03 01:00:15;;;;;;;7.40;5.23;;;5.00;94.70;;;;;;6252034;28;20474;-67
2022/04/03 01:03:19;;;;;;;5.83;5.30;;;5.00;93.40;;;;;;6251804;28;20474;-67
2022/04/03 01:06:23;;;;;;;6.27;5.67;;;5.00;93.20;;;;;;6242798;28;20521;-67
2022/04/03 01:09:27;;;;;;;6.67;6.00;;;5.00;93.50;;;;;;6251831;28;20480;-67
2022/04/03 01:12:30;;;;;;;6.87;5.90;;;5.10;93.70;;;;;;6251951;28;20476;-67
2022/04/03 01:15:53;;;;;;;7.17;5.63;;;5.10;94.20;;;;;;6251834;28;20471;-67
2022/04/03 01:18:58;;;;;;;6.30;5.50;;;5.10;94.70;;;;;;6252494;28;20552;-68
2022/04/03 01:22:01;;;;;;;6.87;5.60;;;5.20;94.90;;;;;;6251637;28;20485;-68
2022/04/03 01:25:08;;;;;;;8.67;5.50;;;5.20;95.00;;;;;;6250607;28;20474;-68
2022/04/03 01:28:11;;;;;;;6.63;5.67;;;5.20;94.80;;;;;;6251238;28;20488;-68
2022/04/03 01:31:14;;;;;;;6.80;6.10;;;5.20;94.80;;;;;;6250947;28;20489;-68
2022/04/03 01:34:18;;;;;;;5.37;4.83;;;5.20;94.70;;;;;;6251061;28;20500;-67
2022/04/03 01:37:21;;;;;;;5.40;4.80;;;5.20;94.40;;;;;;6250962;28;20480;-68
2022/04/03 01:40:26;;;;;;;4.80;4.40;;;5.20;94.30;;;;;;6250725;28;20493;-67
2022/04/03 01:43:29;;;;;;;5.43;5.03;;;5.20;94.10;;;;;;6250753;28;20489;-68
2022/04/03 01:46:32;;;;;;;4.83;4.43;;;5.20;94.10;;;;;;6251098;28;20484;-68
2022/04/03 01:49:35;;;;;;;5.30;4.80;;;5.20;94.10;;;;;;6250656;28;21028;-68
2022/04/03 01:52:38;;;;;;;6.37;5.30;;;5.20;94.10;;;;;;6250236;28;20490;-67
2022/04/03 01:55:43;;;;;;;5.43;4.40;;;5.20;94.20;;;;;;6250284;28;20489;-68
2022/04/03 01:58:46;;;;;;;5.23;4.83;;;5.20;94.60;;;;;;6250499;28;20480;-68
2022/04/03 02:01:49;;;;;;;6.50;5.03;;;5.20;94.60;;;;;;6250620;28;20472;-69
2022/04/03 02:04:52;;;;;;;7.10;5.70;;;5.20;94.50;;;;;;6250710;28;20833;-68
2022/04/03 02:07:55;;;;;;;5.50;4.80;;;5.20;94.50;;;;;;6250754;28;20477;-67
2022/04/03 02:11:00;;;;;;;5.50;5.00;;;5.20;94.50;;;;;;6245914;28;20492;-67
2022/04/03 02:14:05;;;;;;;5.07;4.57;;;5.20;94.50;;;;;;6250300;28;20488;-67
2022/04/03 02:17:08;;;;;;;4.90;4.50;;;5.20;94.50;;;;;;6249891;28;20471;-68
2022/04/03 02:20:12;;;;;;;5.60;5.17;;;5.20;94.50;;;;;;6250287;28;20767;-67
2022/04/03 02:23:16;;;;;;;5.97;5.57;;;5.20;94.40;;;;;;6249853;28;20817;-67
2022/04/03 02:26:20;;;;;;;5.60;5.10;;;5.30;94.20;;;;;;6250161;28;20891;-67
2022/04/03 02:29:23;;;;;;;5.10;4.40;;;5.20;93.90;;;;;;6250239;28;20458;-67
2022/04/03 02:32:26;;;;;;;4.97;4.60;;;5.20;94.00;;;;;;6250210;28;20483;-66
2022/04/03 02:35:29;;;;;;;5.27;4.70;;;5.30;94.50;;;;;;6250312;28;20811;-68
2022/04/03 02:38:33;;;;;;;6.20;5.60;;;5.20;94.20;;;;;;6254780;28;20535;-68
2022/04/03 02:41:37;;;;;;;6.37;5.10;;;5.20;94.00;;;;;;6255121;28;20973;-68
2022/04/03 02:44:41;;;;;;;6.00;5.27;;;5.20;93.50;;;;;;6255185;28;20470;-67
2022/04/03 02:47:50;;;;;;;6.63;5.57;;;5.20;93.30;;;;;;6254782;28;20850;-67
2022/04/03 02:50:53;;;;;;;6.50;5.60;;;5.10;93.40;;;;;;6255160;28;20485;-67
2022/04/03 02:53:56;;;;;;;5.30;4.90;;;5.20;93.50;;;;;;6254729;28;20481;-67
2022/04/03 02:57:01;;;;;;;6.67;5.70;;;5.10;93.50;;;;;;6255146;28;20476;-67
2022/04/03 03:00:06;;;;;;;5.17;4.77;;;5.10;93.50;;;;;;6254887;28;20482;-67
2022/04/03 03:03:09;;;;;;;5.93;5.37;;;5.10;93.80;;;;;;6254546;28;20475;-68
2022/04/03 03:06:14;;;;;;;5.87;5.37;;;5.10;94.20;;;;;;6254466;28;20514;-67
2022/04/03 03:09:18;;;;;;;5.77;5.37;;;5.10;94.50;;;;;;6254176;28;20958;-67
2022/04/03 03:12:22;;;;;;;5.50;5.10;;;5.10;94.40;;;;;;6254155;28;20472;-66
2022/04/03 03:15:26;;;;;;;5.97;5.20;;;5.10;94.10;;;;;;6244856;28;20482;-67
2022/04/03 03:18:29;;;;;;;5.43;4.93;;;5.20;93.90;;;;;;6254572;28;20561;-67
2022/04/03 03:21:32;;;;;;;5.93;5.43;;;5.20;93.50;;;;;;6254262;28;20960;-67
2022/04/03 03:24:35;;;;;;;5.07;4.60;;;5.20;93.30;;;;;;6254177;28;20489;-67
2022/04/03 03:27:40;;;;;;;4.77;4.37;;;5.10;93.50;;;;;;6254009;28;20478;-67
2022/04/03 03:30:43;;;;;;;5.83;5.43;;;5.10;93.50;;;;;;6253836;28;20534;-67
2022/04/03 03:33:46;;;;;;;5.23;4.83;;;5.10;93.70;;;;;;6253574;28;20480;-67
2022/04/03 03:36:49;;;;;;;6.40;4.90;;;5.10;93.90;;;;;;6253794;28;20477;-67
2022/04/03 03:39:53;;;;;;;5.53;4.70;;;5.10;93.60;;;;;;6253874;28;20985;-67
2022/04/03 03:42:57;;;;;;;5.23;4.37;;;5.10;93.70;;;;;;6253574;28;20493;-67
2022/04/03 03:46:01;;;;;;;6.80;4.30;;;5.10;93.40;;;;;;6253719;28;20478;-67
2022/04/03 03:49:04;;;;;;;4.97;4.30;;;5.10;93.20;;;;;;6252386;28;20478;-67
2022/04/03 03:52:07;;;;;;;5.03;4.60;;;5.20;93.30;;;;;;6253256;28;20958;-67
2022/04/03 03:55:11;;;;;;;4.50;4.13;;;5.20;93.30;;;;;;6253271;28;20481;-67
2022/04/03 03:58:15;;;;;;;6.60;4.70;;;5.30;93.50;;;;;;6253428;28;20475;-67
2022/04/03 04:01:19;;;;;;;5.30;4.80;;;5.30;93.50;;;;;;6253155;28;20474;-67
2022/04/03 04:04:22;;;;;;;5.87;5.30;;;5.30;93.50;;;;;;6253152;28;20968;-66
2022/04/03 04:07:25;;;;;;;5.50;5.00;;;5.30;93.10;;;;;;6253014;28;20488;-66
2022/04/03 04:10:28;;;;;;;6.23;4.90;;;5.30;93.20;;;;;;6253230;28;20482;-62
2022/04/03 04:13:33;;;;;;;4.60;4.30;;;5.30;93.10;;;;;;6252943;28;20968;-62
2022/04/03 04:16:36;;;;;;;5.40;4.90;;;5.30;93.20;;;;;;6256505;28;20497;-65
2022/04/03 04:19:42;;;;;;;5.33;4.37;;;5.30;93.50;;;;;;6243686;28;20965;-63
2022/04/03 04:22:47;;;;;;;5.33;4.83;;;5.20;93.20;;;;;;6253137;28;20959;-63
2022/04/03 04:25:50;;;;;;;5.60;5.10;;;5.30;93.60;;;;;;6252834;28;20817;-66
2022/04/03 04:28:55;;;;;;;5.50;5.00;;;5.30;94.10;;;;;;6252812;28;20810;-65
2022/04/03 04:31:58;;;;;;;5.27;4.20;;;5.30;94.00;;;;;;6252246;28;20489;-65
2022/04/03 04:35:03;;;;;;;4.80;4.40;;;5.30;94.00;;;;;;6252316;28;20468;-65
2022/04/03 04:38:06;;;;;;;5.57;4.30;;;5.30;93.60;;;;;;6252392;28;20458;-65
2022/04/03 04:41:09;;;;;;;5.80;5.27;;;5.30;93.80;;;;;;6252799;28;20446;-66
2022/04/03 04:44:14;;;;;;;8.07;5.60;;;5.30;94.10;;;;;;6252150;28;20486;-63
2022/04/03 04:47:17;;;;;;;7.53;5.20;;;5.30;94.30;;;;;;6252521;28;20459;-67
2022/04/03 04:50:20;;;;;;;6.87;5.90;;;5.20;94.60;;;;;;6252322;28;20507;-66
2022/04/03 04:53:23;;;;;;;6.53;5.50;;;5.30;94.80;;;;;;6253351;28;20812;-66
2022/04/03 04:56:26;;;;;;;5.37;4.97;;;5.30;94.60;;;;;;6252209;28;20450;-65
2022/04/03 04:59:31;;;;;;;5.63;5.13;;;5.30;94.50;;;;;;6252371;28;20856;-64
2022/04/03 05:02:34;;;;;;;5.73;5.10;;;5.30;94.40;;;;;;6252018;28;20473;-64
2022/04/03 05:05:37;;;;;;;7.17;5.00;;;5.20;93.70;;;;;;6252228;28;20469;-67
2022/04/03 05:08:41;;;;;;;5.17;4.77;;;5.20;93.80;;;;;;6252341;28;20480;-67
2022/04/03 05:11:44;;;;;;;5.07;4.73;;;5.20;93.20;;;;;;6251672;28;20478;-67
2022/04/03 05:14:49;;;;;;;5.93;4.70;;;5.30;93.20;;;;;;6251371;28;20481;-67
2022/04/03 05:17:52;;;;;;;6.53;5.73;;;5.30;93.40;;;;;;6251493;28;20477;-66
2022/04/03 05:20:55;;;;;;;6.37;5.83;;;5.40;93.70;;;;;;6246458;28;20784;-67
2022/04/03 05:23:58;;;;;;;6.10;5.40;;;5.50;94.00;;;;;;6251361;28;20814;-63
2022/04/03 05:27:01;;;;;;;5.90;5.30;;;5.50;93.90;;;;;;6251152;28;20478;-63
2022/04/03 05:30:07;;;;;;;5.47;4.97;;;5.60;93.60;;;;;;6251649;28;20494;-63
2022/04/03 05:33:10;;;;;;;6.10;5.50;;;5.60;93.30;;;;;;6251774;28;20478;-64
2022/04/03 05:36:13;;;;;;;6.73;4.67;;;5.70;93.00;;;;;;6254213;28;20485;-63
2022/04/03 05:39:17;;;;;;;5.13;4.73;;;5.80;92.70;;;;;;6257344;28;20814;-63
2022/04/03 05:42:20;;;;;;;5.17;4.70;;;5.80;92.50;;;;;;6257014;28;20510;-66
2022/04/03 05:45:25;;;;;;;4.83;4.43;;;5.80;92.60;;;;;;6257283;28;20463;-66
2022/04/03 05:48:28;;;;;;;5.60;5.10;;;5.90;93.00;;;;;;6251731;28;20497;-66
2022/04/03 05:51:31;;;;;;;5.23;4.60;;;6.00;92.90;;;;;;6255394;28;20501;-62
2022/04/03 05:54:34;;;;;;;4.57;4.20;;;6.00;92.20;;;;;;6255355;28;21021;-65
2022/04/03 05:57:38;;;;;;;5.33;4.83;;;6.20;92.30;;;;;;6255383;28;20475;-65
2022/04/03 06:00:43;;;;;;;5.87;5.20;;;6.20;91.60;;;;;;6252190;28;20474;-66
2022/04/03 06:03:46;;;;;;;6.57;5.10;;;6.20;91.50;;;;;;6251046;28;20959;-62
2022/04/03 06:06:49;;;;;;;6.63;4.63;;;6.30;91.10;;;;;;6251618;28;20489;-62
2022/04/03 06:09:52;;;;;;;6.13;5.63;;;6.30;91.00;;;;;;6251048;28;20475;-64
2022/04/03 06:12:57;;;;;;;5.80;5.10;;;6.30;90.90;;;;;;6249919;28;20491;-64
2022/04/03 06:16:02;;;;;;;6.47;5.97;;;6.30;90.30;;;;;;6250476;28;20483;-64
2022/04/03 06:19:05;;;;;;;6.40;5.80;;;6.40;90.90;;;;;;6251475;28;20476;-64
2022/04/03 06:22:08;;;;;;;6.63;6.03;;;6.50;91.30;;;;;;6252591;28;20474;-63
2022/04/03 06:25:12;;;;;;;8.40;6.80;;;6.60;91.70;;;;;;6251065;28;20793;-64
2022/04/03 06:28:15;;;;;;;10.20;7.60;;;6.70;92.10;;;;;;6246286;28;20489;-64
2022/04/03 06:31:20;;;;;;;6.83;6.33;;;6.80;91.30;;;;;;6250959;28;21088;-63
2022/04/03 06:34:23;;;;;;;6.80;5.73;;;6.90;91.00;;;;;;6250155;28;20512;-62
2022/04/03 06:37:28;;;;;;;7.57;6.63;;;7.00;90.60;;;;;;6252309;28;20987;-62
2022/04/03 06:40:33;;;;;;;6.97;6.37;;;7.10;90.20;;;;;;6258688;28;20475;-62
2022/04/03 06:43:36;;;;;;;7.60;5.93;;;7.00;91.00;;;;;;6261360;28;20483;-62
2022/04/03 06:46:40;;;;;;;6.37;5.77;;;7.20;91.50;;;;;;6253509;28;20471;-62
2022/04/03 06:49:44;;;;;;;8.50;7.73;;;7.40;91.20;;;;;;6251293;28;20641;-63
2022/04/03 06:52:47;;;;;;;7.93;6.83;;;7.50;91.30;;;;;;6250565;28;20819;-67
2022/04/03 06:55:50;;;;;;;11.87;6.60;;;7.50;91.60;;;;;;6250579;28;20870;-68
2022/04/03 06:58:54;;;;;;;6.93;6.23;;;7.60;91.20;;;;;;6255765;28;20486;-67
2022/04/03 07:01:59;;;;;;;6.80;5.50;;;7.70;90.90;;;;;;6255999;28;20816;-67
2022/04/03 07:05:02;;;;;;;5.93;5.43;;;7.90;90.80;;;;;;6255457;28;20875;-68
2022/04/03 07:08:06;;;;;;;8.50;7.57;;;8.30;88.60;;;;;;6255885;28;20463;-67
2022/04/03 07:11:09;;;;;;;6.73;6.00;;;8.60;86.00;;;;;;6253630;28;20466;-67
2022/04/03 07:14:12;;;;;;;6.83;6.13;;;8.70;84.20;;;;;;6250096;28;20479;-67
2022/04/03 07:17:18;;;;;;;6.27;5.63;;;8.70;82.90;;;;;;6251652;28;20452;-67
2022/04/03 07:20:21;;;;;;;5.33;4.93;;;9.10;81.90;;;;;;6251795;28;20439;-67
2022/04/03 07:23:25;;;;;;;5.90;5.50;;;9.50;79.00;;;;;;6250932;28;20451;-66
2022/04/03 07:26:28;;;;;;;5.10;4.70;;;9.70;74.80;;;;;;6254427;28;20459;-67
2022/04/03 07:29:31;;;;;;;5.83;5.43;;;9.60;75.50;;;;;;6251471;28;20485;-68
2022/04/03 07:32:36;;;;;;;5.63;5.13;;;9.70;72.70;;;;;;6254314;28;20478;-67
2022/04/03 07:35:39;;;;;;;6.13;4.90;;;9.70;70.10;;;;;;6254508;28;20946;-68
2022/04/03 07:38:43;;;;;;;6.10;4.33;;;9.70;70.30;;;;;;6254885;28;20471;-70
2022/04/03 07:41:46;;;;;;;5.20;4.70;;;9.80;67.60;;;;;;6255767;28;20962;-66
2022/04/03 07:44:49;;;;;;;8.43;6.43;;;10.00;66.80;;;;;;6255380;28;20478;-67
2022/04/03 07:47:53;;;;;;;6.43;5.70;;;10.20;67.10;;;;;;6256110;28;20477;-68
2022/04/03 07:50:57;;;;;;;4.70;4.33;;;10.10;68.00;;;;;;6254176;28;20490;-68
2022/04/03 07:54:00;;;;;;;5.17;4.67;;;10.40;66.30;;;;;;6253806;28;20482;-67
2022/04/03 07:57:03;;;;;;;6.00;4.40;;;10.70;64.00;;;;;;6254124;28;20987;-67
2022/04/03 08:00:09;;;;;;;7.20;6.60;;;10.80;63.90;;;;;;6253921;28;20986;-67
2022/04/03 08:03:14;;;;;;;5.03;4.63;;;10.80;60.10;;;;;;6254152;28;20472;-68
2022/04/03 08:06:17;;;;;;;5.73;5.23;;;10.50;59.60;;;;;;6253251;28;20475;-67
2022/04/03 08:09:21;;;;;;;6.63;5.33;;;10.70;60.00;;;;;;6252253;28;20483;-66
2022/04/03 08:12:24;;;;;;;4.47;4.07;;;10.80;59.40;;;;;;6252619;28;20815;-66
2022/04/03 08:15:28;;;;;;;5.57;4.83;;;10.80;57.50;;;;;;6251933;28;20475;-66
2022/04/03 08:18:32;;;;;;;5.47;5.07;;;10.50;57.00;;;;;;6251538;28;20467;-66
2022/04/03 08:21:38;;;;;;;4.40;4.10;;;10.10;57.10;;;;;;6251748;28;20479;-66
2022/04/03 08:24:41;;;;;;;3.87;3.57;;;10.20;59.80;;;;;;6251060;28;20570;-67
2022/04/03 08:27:47;;;;;;;4.60;4.27;;;11.20;58.70;;;;;;6252448;28;20478;-66
2022/04/03 08:30:50;;;;;;;3.80;3.50;;;12.90;56.80;;;;;;6252822;28;20467;-66
2022/04/03 08:33:55;;;;;;;3.70;3.40;;;14.90;51.40;;;;;;6245816;28;20482;-66
2022/04/03 08:36:58;;;;;;;3.50;3.27;;;16.20;46.40;;;;;;6252809;28;20483;-67
2022/04/03 08:40:03;;;;;;;3.30;3.10;;;17.50;43.00;;;;;;6252511;28;20474;-65
2022/04/03 08:43:06;;;;;;;3.33;3.03;;;19.40;38.70;;;;;;6252108;28;20479;-67
2022/04/03 08:46:10;;;;;;;3.50;3.30;;;21.50;34.80;;;;;;6252096;28;20734;-67
2022/04/03 08:49:15;;;;;;;3.87;2.77;;;23.30;30.20;;;;;;6252110;28;20243;-67
2022/04/03 08:52:19;;;;;;;2.93;2.60;;;24.90;26.80;;;;;;6250898;28;20290;-67
2022/04/03 08:55:23;;;;;;;2.57;2.37;;;26.40;25.50;;;;;;6252722;28;20240;-67
2022/04/03 08:58:26;;;;;;;2.93;2.63;;;27.10;23.70;;;;;;6251971;28;20256;-63
2022/04/03 09:01:30;;;;;;;3.87;2.50;;;27.50;22.70;;;;;;6254295;28;20629;-63
2022/04/03 09:04:37;;;;;;;3.40;3.10;;;28.50;20.70;;;;;;6251866;28;20580;-63
2022/04/03 09:07:41;;;;;;;2.60;2.40;;;29.60;20.30;;;;;;6253602;28;20223;-64
2022/04/03 09:11:04;;;;;;;4.00;2.93;;;30.80;18.80;;;;;;6253228;28;20227;-63
2022/04/03 09:14:14;;;;;;;2.80;2.60;;;32.50;17.20;;;;;;6254235;28;20247;-63
2022/04/03 09:17:33;;;;;;;2.20;2.00;;;33.20;15.70;;;;;;6251882;28;20613;-63
2022/04/03 09:20:38;;;;;;;2.90;2.63;;;33.00;15.30;;;;;;6252275;28;20228;-62
2022/04/03 09:24:03;;;;;;;3.40;2.80;;;31.60;16.10;;;;;;6251450;28;20235;-62
2022/04/03 09:27:06;;;;;;;2.87;2.57;;;30.60;16.20;;;;;;6255748;28;20235;-62
2022/04/03 09:30:10;;;;;;;2.70;2.50;;;28.30;16.70;;;;;;6244379;28;20224;-62
2022/04/03 09:33:19;;;;;;;3.83;3.53;;;26.00;18.10;;;;;;6246200;28;20242;-63
2022/04/03 09:36:23;;;;;;;3.80;2.80;;;24.50;19.50;;;;;;6247359;28;20370;-62
2022/04/03 09:39:29;;;;;;;3.13;2.57;;;22.50;20.10;;;;;;6233887;28;20264;-63
2022/04/03 09:42:32;;;;;;;2.67;2.47;;;20.20;21.40;;;;;;6226913;28;20316;-63
2022/04/03 09:45:44;;;;;;;2.80;2.60;;;18.70;23.20;;;;;;6225587;28;20259;-62
2022/04/03 09:48:47;;;;;;;6.00;2.60;;;17.00;24.30;;;;;;6249847;28;20236;-62
2022/04/03 09:51:52;;;;;;;3.47;3.17;;;16.40;25.00;;;;;;6250169;28;20812;-62
2022/04/03 09:54:55;;;;;;;3.10;2.80;;;16.70;25.50;;;;;;6249826;28;20483;-62
2022/04/03 09:58:03;;;;;;;2.97;2.77;;;17.00;24.90;;;;;;6251313;28;20479;-62
2022/04/03 10:01:26;;;;;;;3.23;2.93;;;17.10;25.30;;;;;;6235694;28;20460;-63
2022/04/03 10:04:33;;;;;;;3.27;2.97;;;16.30;24.90;;;;;;6250135;28;20478;-63
2022/04/03 10:07:39;;;;;;;2.93;2.73;;;15.60;25.90;;;;;;6250237;28;20825;-63
2022/04/03 10:10:42;;;;;;;4.17;3.03;;;15.50;26.40;;;;;;6250008;28;20475;-63
2022/04/03 10:13:46;;;;;;;3.53;3.20;;;15.70;26.90;;;;;;6249870;28;20478;-63
2022/04/03 10:16:49;;;;;;;3.50;3.07;;;15.80;25.90;;;;;;6249050;28;20482;-63
2022/04/03 10:19:52;;;;;;;3.20;2.90;;;15.40;26.10;;;;;;6252720;28;20562;-63
2022/04/03 10:23:00;;;;;;;3.13;2.93;;;15.00;26.10;;;;;;6250298;28;20475;-63
2022/04/03 10:26:05;;;;;;;2.97;2.77;;;15.00;25.60;;;;;;6250116;28;20467;-63
2022/04/03 10:29:10;;;;;;;3.20;2.90;;;14.90;26.40;;;;;;6249987;28;20804;-63
2022/04/03 10:32:23;;;;;;;4.00;3.20;;;14.80;26.20;;;;;;6229354;28;20478;-63
2022/04/03 10:35:27;;;;;;;5.20;3.00;;;14.40;26.60;;;;;;6225678;28;21111;-63
2022/04/03 10:38:37;;;;;;;4.10;3.20;;;14.00;27.10;;;;;;6225611;28;20820;-66
2022/04/03 10:41:43;;;;;;;3.43;3.17;;;13.70;27.60;;;;;;6221658;28;20475;-65
2022/04/03 10:45:33;;;;;;;3.80;3.50;;;13.40;27.70;;;;;;6225469;28;20561;-65
2022/04/03 10:48:36;;;;;;;3.63;2.63;;;13.40;28.10;;;;;;6225874;28;20472;-65
2022/04/03 10:51:40;;;;;;;3.40;3.20;;;13.20;27.70;;;;;;6225469;28;20467;-64
2022/04/03 10:54:50;;;;;;;3.43;3.23;;;13.10;28.40;;;;;;6225262;28;20495;-67
2022/04/03 10:57:55;;;;;;;3.97;3.67;;;13.00;28.00;;;;;;6226973;28;20810;-66
2022/04/03 11:01:04;;;;;;;3.50;3.30;;;12.60;28.60;;;;;;6235435;28;20503;-68
2022/04/03 11:04:10;;;;;;;3.37;3.10;;;12.50;28.20;;;;;;6231528;28;20964;-68
2022/04/03 11:07:15;;;;;;;3.77;3.50;;;12.70;28.30;;;;;;6246702;28;20530;-67
2022/04/03 11:10:45;;;;;;;3.57;3.37;;;13.00;27.60;;;;;;6237959;28;20472;-65
2022/04/03 11:13:49;;;;;;;3.13;2.70;;;13.00;28.40;;;;;;6255018;28;20491;-66
2022/04/03 11:16:56;;;;;;;5.30;3.70;;;13.40;28.30;;;;;;6245614;28;20472;-61
2022/04/03 11:19:59;;;;;;;3.93;3.63;;;13.60;27.90;;;;;;6237563;28;20467;-62
2022/04/03 11:23:05;;;;;;;3.80;3.50;;;13.80;27.80;;;;;;6256257;28;20475;-63
2022/04/03 11:26:10;;;;;;;4.27;3.70;;;13.90;28.00;;;;;;6248855;28;20513;-63
2022/04/03 11:29:13;;;;;;;4.73;3.50;;;13.90;27.30;;;;;;6253939;28;20760;-64
2022/04/03 11:32:16;;;;;;;5.53;3.20;;;14.00;27.20;;;;;;6255619;28;20471;-63
2022/04/03 11:35:33;;;;;;;3.67;3.40;;;14.30;27.60;;;;;;6256682;28;20497;-63
2022/04/03 11:38:38;;;;;;;3.67;3.40;;;14.30;26.70;;;;;;6255070;28;20478;-64
2022/04/03 11:41:46;;;;;;;3.53;3.23;;;14.40;26.60;;;;;;6253440;28;20470;-65
2022/04/03 11:44:53;;;;;;;4.03;3.73;;;14.70;27.50;;;;;;6248816;28;20545;-65
2022/04/03 11:48:18;;;;;;;4.40;4.00;;;15.00;26.90;;;;;;6252401;28;20927;-67
2022/04/03 11:51:22;;;;;;;3.37;3.07;;;15.30;26.20;;;;;;6252616;28;20486;-66
2022/04/03 11:54:25;;;;;;;3.43;3.03;;;15.50;26.20;;;;;;6253712;28;21077;-64
2022/04/03 11:57:30;;;;;;;3.93;3.53;;;15.50;25.60;;;;;;6253464;28;20478;-64
2022/04/03 12:00:34;;;;;;;3.93;3.63;;;15.90;25.90;;;;;;6253968;28;20475;-64
2022/04/03 12:03:42;;;;;;;3.77;3.47;;;16.20;25.60;;;;;;6253467;28;20475;-63
2022/04/03 12:06:47;;;;;;;4.27;3.87;;;16.30;26.10;;;;;;6253731;28;21189;-65
2022/04/03 12:09:51;;;;;;;4.10;3.80;;;16.30;26.20;;;;;;6249320;28;20493;-65
2022/04/03 12:12:59;;;;;;;3.47;3.17;;;16.20;25.60;;;;;;6252729;28;20482;-65
2022/04/03 12:16:02;;;;;;;3.50;3.30;;;15.90;25.50;;;;;;6252760;28;20479;-65
2022/04/03 12:19:06;;;;;;;4.17;3.37;;;15.70;25.30;;;;;;6252670;28;20474;-65
2022/04/03 12:22:12;;;;;;;4.30;3.90;;;15.60;25.10;;;;;;6252782;28;20490;-64
2022/04/03 12:25:15;;;;;;;3.70;3.50;;;15.50;25.80;;;;;;6252504;28;20813;-64
2022/04/03 12:28:23;;;;;;;3.33;3.13;;;15.20;25.80;;;;;;6252643;28;20471;-64
2022/04/03 12:31:28;;;;;;;3.70;3.40;;;15.10;25.80;;;;;;6252197;28;20475;-64
2022/04/03 12:34:34;;;;;;;6.13;3.63;;;14.80;25.80;;;;;;6250969;28;20964;-64
2022/04/03 12:37:40;;;;;;;3.27;3.07;;;14.50;26.30;;;;;;6250752;28;20570;-64
2022/04/03 12:40:46;;;;;;;3.10;2.90;;;14.20;26.00;;;;;;6250943;28;20478;-64
2022/04/03 12:43:51;;;;;;;3.07;2.77;;;14.00;26.60;;;;;;6249899;28;20490;-64
2022/04/03 12:46:54;;;;;;;4.13;3.83;;;14.00;27.40;;;;;;6249726;28;20478;-64
2022/04/03 12:50:17;;;;;;;4.50;3.00;;;14.10;27.20;;;;;;6241201;28;20482;-63
2022/04/03 12:53:21;;;;;;;3.43;3.20;;;14.00;27.40;;;;;;6250412;28;20547;-63
2022/04/03 12:58:24;;;;;;;3.03;2.83;;;14.10;26.80;;;;;;6250807;28;20478;-64
2022/04/03 12:59:51;;;;;;;3.73;3.47;;;14.10;27.50;;;;;;6252964;28;20463;-65
2022/04/03 13:02:55;;;;;;;3.23;2.93;;;14.10;27.30;;;;;;6252729;28;20475;-64
2022/04/03 13:06:00;;;;;;;3.80;3.50;;;14.10;27.20;;;;;;6252444;28;20550;-64
2022/04/03 13:09:05;;;;;;;3.27;2.80;;;14.10;27.80;;;;;;6245478;28;20476;-65
2022/04/03 13:12:09;;;;;;;2.93;2.73;;;14.10;27.40;;;;;;6227499;28;20561;-64
2022/04/03 13:15:14;;;;;;;3.23;3.00;;;14.00;27.10;;;;;;6228814;28;20498;-64
2022/04/03 13:18:17;;;;;;;2.93;2.73;;;13.90;27.30;;;;;;6251496;28;20584;-64
2022/04/03 13:21:21;;;;;;;3.90;3.00;;;14.10;27.20;;;;;;6251383;28;20963;-65
2022/04/03 13:24:27;;;;;;;3.10;2.90;;;14.10;27.10;;;;;;6251476;28;20990;-64
2022/04/03 13:27:30;;;;;;;3.10;2.90;;;14.00;27.20;;;;;;6251280;28;20581;-64
2022/04/03 13:30:35;;;;;;;3.33;3.03;;;13.80;27.30;;;;;;6251704;28;20482;-63
2022/04/03 13:33:38;;;;;;;3.87;3.57;;;13.30;27.30;;;;;;6251299;28;20487;-64
2022/04/03 13:36:42;;;;;;;4.03;3.10;;;13.00;28.30;;;;;;6251724;28;20494;-64
2022/04/03 13:39:45;;;;;;;2.73;2.53;;;12.90;28.50;;;;;;6251440;28;20482;-64
2022/04/03 13:42:48;;;;;;;3.30;2.97;;;12.80;28.90;;;;;;6251034;28;20475;-64
2022/04/03 13:46:00;;;;;;;3.30;3.10;;;12.80;29.30;;;;;;6253355;28;20479;-64
2022/04/03 13:49:05;;;;;;;3.73;3.43;;;12.80;29.00;;;;;;6252458;28;20467;-65
2022/04/03 13:52:09;;;;;;;3.77;3.47;;;12.70;29.30;;;;;;6250939;28;20563;-64
2022/04/03 13:55:12;;;;;;;4.07;3.67;;;12.50;29.40;;;;;;6250588;28;21026;-63
2022/04/03 13:58:15;;;;;;;2.70;2.50;;;12.20;29.70;;;;;;6250849;28;20828;-64
2022/04/03 14:01:21;;;;;;;3.30;3.10;;;12.00;30.00;;;;;;6250755;28;20489;-64
2022/04/03 14:04:24;;;;;;;3.63;3.37;;;11.90;30.30;;;;;;6250864;28;20482;-64
2022/04/03 14:07:27;;;;;;;3.67;3.10;;;11.90;30.00;;;;;;6250558;28;20482;-65
2022/04/03 14:10:31;;;;;;;3.33;3.13;;;11.90;30.00;;;;;;6250539;28;20472;-64
2022/04/03 14:13:34;;;;;;;3.33;3.00;;;11.80;30.20;;;;;;6250301;28;20483;-64
2022/04/03 14:16:39;;;;;;;13.70;3.43;;;11.80;30.30;;;;;;6236870;28;20491;-64
2022/04/03 14:19:42;;;;;;;2.83;2.63;;;11.70;30.10;;;;;;6225822;28;20472;-64
2022/04/03 14:22:45;;;;;;;3.57;3.17;;;11.70;31.00;;;;;;6225651;28;20488;-64
2022/04/03 14:25:49;;;;;;;3.67;3.37;;;11.80;30.80;;;;;;6225626;28;20487;-64
2022/04/03 14:28:53;;;;;;;4.63;4.23;;;11.90;31.00;;;;;;6225402;28;20487;-64
2022/04/03 14:31:57;;;;;;;3.43;3.13;;;11.90;31.20;;;;;;6225636;28;20487;-64
2022/04/03 14:35:01;;;;;;;3.30;3.03;;;11.90;31.10;;;;;;6225535;28;20562;-64
2022/04/03 14:38:04;;;;;;;3.17;2.97;;;12.00;31.00;;;;;;6225215;28;20515;-64
2022/04/03 14:41:07;;;;;;;3.00;2.80;;;11.90;30.80;;;;;;6225627;28;20791;-65
2022/04/03 14:44:11;;;;;;;2.57;2.37;;;12.00;30.90;;;;;;6225317;28;20785;-64
2022/04/03 14:47:15;;;;;;;2.87;2.67;;;11.80;30.50;;;;;;6226385;28;20454;-64
2022/04/03 14:50:19;;;;;;;2.83;2.63;;;11.80;30.30;;;;;;6226001;28;20436;-64
2022/04/03 14:53:23;;;;;;;2.80;2.60;;;11.70;30.10;;;;;;6225577;28;20495;-64
2022/04/03 14:56:27;;;;;;;2.67;2.47;;;11.80;31.00;;;;;;6225609;28;20562;-64
2022/04/03 14:59:30;;;;;;;2.97;2.77;;;11.90;31.00;;;;;;6225792;28;20458;-64
2022/04/03 15:02:35;;;;;;;2.83;2.63;;;11.80;31.40;;;;;;6225867;28;20467;-64
2022/04/03 15:05:39;;;;;;;2.83;2.63;;;11.80;31.50;;;;;;6225622;28;20468;-64
2022/04/03 15:08:43;;;;;;;3.77;3.47;;;11.80;31.20;;;;;;6232958;28;20966;-64
2022/04/03 15:11:46;;;;;;;4.97;4.57;;;11.60;34.10;;;;;;6250335;28;20483;-63
2022/04/03 15:14:49;;;;;;;4.97;4.60;;;11.50;36.70;;;;;;6250482;28;20477;-64
2022/04/03 15:17:54;;;;;;;4.93;4.53;;;11.40;38.00;;;;;;6226317;28;20464;-64
2022/04/03 15:21:03;;;;;;;5.70;4.80;;;11.30;38.00;;;;;;6225005;28;20821;-64
2022/04/03 15:24:07;;;;;;;5.60;5.10;;;11.10;38.50;;;;;;6225150;28;20477;-64
2022/04/03 15:27:10;;;;;;;5.17;4.70;;;11.00;39.50;;;;;;6225118;28;20490;-63
2022/04/03 15:30:14;;;;;;;8.63;5.60;;;10.90;40.00;;;;;;6226258;28;20471;-63
2022/04/03 15:33:18;;;;;;;5.73;5.17;;;10.60;41.00;;;;;;6225420;28;20480;-64
2022/04/03 15:36:24;;;;;;;5.90;5.40;;;10.40;41.50;;;;;;6224526;28;20863;-64
2022/04/03 15:39:27;;;;;;;7.00;4.87;;;10.30;41.90;;;;;;6224527;28;20490;-65
2022/04/03 15:42:30;;;;;;;5.10;4.60;;;10.00;42.90;;;;;;6225270;28;20495;-65
2022/04/03 15:45:33;;;;;;;6.50;5.80;;;9.80;44.20;;;;;;6227070;28;20479;-64
2022/04/03 15:48:38;;;;;;;5.13;4.73;;;9.60;45.60;;;;;;6229407;28;20467;-64
2022/04/03 15:51:41;;;;;;;6.43;5.50;;;9.50;45.70;;;;;;6229047;28;20795;-63
2022/04/03 15:54:44;;;;;;;6.93;5.43;;;9.30;46.30;;;;;;6234075;28;20490;-63
2022/04/03 15:57:47;;;;;;;5.60;5.10;;;9.10;47.50;;;;;;6239370;28;20472;-63
2022/04/03 16:00:50;;;;;;;6.00;5.50;;;9.10;47.70;;;;;;6231303;28;20474;-63
2022/04/03 16:03:55;;;;;;;6.97;5.57;;;9.20;47.80;;;;;;6252911;28;20475;-62
2022/04/03 16:06:58;;;;;;;5.40;4.90;;;9.30;47.80;;;;;;6252507;28;20467;-62
2022/04/03 16:10:24;;;;;;;6.87;4.93;;;9.30;48.30;;;;;;6257521;28;20971;-62